createdAt,value
2023-03-22T00:01:22.982Z,101113.66
2023-03-22T00:03:26.324Z,101105.06
2023-03-22T00:05:30.086Z,101108.81
2023-03-22T00:07:31.743Z,101105.47
2023-03-22T00:09:33.556Z,101104.81
2023-03-22T00:11:35.354Z,101106.69
2023-03-22T00:13:37.619Z,101103.97
2023-03-22T00:15:39.973Z,101096.88
2023-03-22T00:17:41.637Z,101097.91
2023-03-22T00:19:43.434Z,101089.75
2023-03-22T00:21:46.522Z,101087.22
2023-03-22T00:23:48.472Z,101091.00
2023-03-22T00:25:50.062Z,101093.91
2023-03-22T00:27:52.619Z,101086.78
2023-03-22T00:29:54.198Z,101087.84
2023-03-22T00:31:56.081Z,101078.16
2023-03-22T00:33:58.213Z,101086.53
2023-03-22T00:36:02.602Z,101085.88
2023-03-22T00:38:06.059Z,101079.81
2023-03-22T00:40:11.164Z,101082.72
2023-03-22T00:42:12.882Z,101072.06
2023-03-22T00:44:15.479Z,101074.13
2023-03-22T00:46:19.300Z,101071.63
2023-03-22T00:48:24.999Z,101067.22
2023-03-22T00:50:27.571Z,101072.81
2023-03-22T00:52:29.419Z,101070.31
2023-03-22T00:54:32.626Z,101062.34
2023-03-22T00:56:34.280Z,101062.53
2023-03-22T00:58:39.081Z,101056.44
2023-03-22T01:00:41.028Z,101053.91
2023-03-22T01:02:43.507Z,101052.25
2023-03-22T01:04:45.326Z,101054.97
2023-03-22T01:06:47.211Z,101055.16
2023-03-22T01:08:49.319Z,101056.19
2023-03-22T01:10:52.692Z,101055.38
2023-03-22T01:12:56.726Z,101047.22
2023-03-22T01:14:58.306Z,101050.97
2023-03-22T01:17:00.249Z,101050.13
2023-03-22T01:19:02.118Z,101048.25
2023-03-22T01:21:04.599Z,101043.84
2023-03-22T01:23:06.670Z,101041.97
2023-03-22T01:25:09.261Z,101043.84
2023-03-22T01:27:12.847Z,101032.97
2023-03-22T01:29:14.499Z,101029.41
2023-03-22T01:31:16.583Z,101036.72
2023-03-22T01:33:18.917Z,101030.25
2023-03-22T01:35:20.785Z,101033.81
2023-03-22T01:37:22.604Z,101032.13
2023-03-22T01:39:24.437Z,101035.69
2023-03-22T01:41:26.317Z,101022.09
2023-03-22T01:43:29.475Z,101023.97
2023-03-22T01:45:38.709Z,101027.34
2023-03-22T01:47:44.241Z,101024.63
2023-03-22T01:49:46.180Z,101016.47
2023-03-22T01:51:51.351Z,101017.31
2023-03-22T01:53:56.447Z,101019.19
2023-03-22T01:55:58.807Z,101012.69
2023-03-22T01:58:01.658Z,101012.50
2023-03-22T02:00:07.956Z,101006.22
2023-03-22T02:02:10.586Z,101009.78
2023-03-22T02:04:16.754Z,101009.59
2023-03-22T02:06:20.055Z,100999.53
2023-03-22T02:08:22.105Z,101003.09
2023-03-22T02:10:27.556Z,101006.50
2023-03-22T02:12:39.213Z,100998.31
2023-03-22T02:14:56.321Z,100993.75
2023-03-22T02:17:15.320Z,100991.47
2023-03-22T02:19:47.717Z,100993.13
2023-03-22T02:22:17.405Z,100982.09
2023-03-22T02:24:45.381Z,100978.47
2023-03-22T02:27:30.412Z,100974.56
2023-03-22T02:29:39.977Z,100971.22
2023-03-22T02:32:04.313Z,100970.19
2023-03-22T02:34:32.966Z,100969.13
2023-03-22T02:36:53.961Z,100972.06
2023-03-22T02:39:19.490Z,100965.38
2023-03-22T02:41:35.661Z,100970.19
2023-03-22T02:43:46.612Z,100971.22
2023-03-22T02:45:54.410Z,100975.78
2023-03-22T02:48:02.994Z,100977.66
2023-03-22T02:50:11.740Z,100974.94
2023-03-22T02:52:20.105Z,100978.47
2023-03-22T02:54:29.172Z,100974.94
2023-03-22T02:56:35.328Z,100980.38
2023-03-22T02:58:41.349Z,100977.03
2023-03-22T03:00:45.041Z,100968.03
2023-03-22T03:02:50.483Z,100966.34
2023-03-22T03:04:55.707Z,100967.19
2023-03-22T03:07:02.942Z,100971.78
2023-03-22T03:09:05.269Z,100965.50
2023-03-22T03:11:08.528Z,100969.06
2023-03-22T03:13:12.482Z,100964.66
2023-03-22T03:15:18.142Z,100968.63
2023-03-22T03:17:34.059Z,100963.00
2023-03-22T03:19:41.625Z,100960.47
2023-03-22T03:21:51.058Z,100963.41
2023-03-22T03:24:03.035Z,100961.50
2023-03-22T03:26:14.325Z,100955.25
2023-03-22T03:28:25.565Z,100953.56
2023-03-22T03:30:34.151Z,100947.47
2023-03-22T03:32:42.903Z,100954.81
2023-03-22T03:34:49.024Z,100952.91
2023-03-22T03:36:56.723Z,100954.81
2023-03-22T03:39:00.342Z,100957.53
2023-03-22T03:41:05.522Z,100950.19
2023-03-22T03:43:10.182Z,100954.81
2023-03-22T03:45:14.764Z,100945.81
2023-03-22T03:47:16.933Z,100949.38
2023-03-22T03:49:22.212Z,100960.25
2023-03-22T03:51:24.280Z,100959.19
2023-03-22T03:53:25.899Z,100956.47
2023-03-22T03:55:28.927Z,100961.06
2023-03-22T03:57:30.447Z,100959.19
2023-03-22T03:59:33.867Z,100964.63
2023-03-22T04:01:35.592Z,100957.31
2023-03-22T04:03:37.907Z,100952.91
2023-03-22T04:05:40.190Z,100960.03
2023-03-22T04:07:41.812Z,100952.91
2023-03-22T04:09:43.495Z,100955.63
2023-03-22T04:11:45.068Z,100961.91
2023-03-22T04:13:47.402Z,100952.91
2023-03-22T04:15:54.178Z,100947.47
2023-03-22T04:17:55.824Z,100943.94
2023-03-22T04:19:57.836Z,100941.41
2023-03-22T04:21:59.447Z,100936.81
2023-03-22T04:24:01.450Z,100937.66
2023-03-22T04:26:04.068Z,100934.09
2023-03-22T04:28:07.540Z,100928.66
2023-03-22T04:30:11.772Z,100926.13
2023-03-22T04:32:15.363Z,100924.44
2023-03-22T04:34:16.971Z,100936.16
2023-03-22T04:36:20.794Z,100930.72
2023-03-22T04:38:23.081Z,100927.16
2023-03-22T04:40:24.903Z,100920.06
2023-03-22T04:42:26.821Z,100909.19
2023-03-22T04:44:28.453Z,100900.38
2023-03-22T04:46:30.889Z,100889.50
2023-03-22T04:48:34.629Z,100901.44
2023-03-22T04:50:36.184Z,100907.91
2023-03-22T04:52:37.721Z,100909.78
2023-03-22T04:54:39.725Z,100907.25
2023-03-22T04:56:41.739Z,100895.75
2023-03-22T04:58:45.111Z,100903.06
2023-03-22T05:00:48.208Z,100904.31
2023-03-22T05:02:49.874Z,100908.91
2023-03-22T05:04:52.883Z,100898.22
2023-03-22T05:06:54.872Z,100890.47
2023-03-22T05:08:56.459Z,100892.16
2023-03-22T05:11:04.769Z,100885.03
2023-03-22T05:13:06.287Z,100886.06
2023-03-22T05:15:09.008Z,100886.91
2023-03-22T05:17:10.633Z,100883.34
2023-03-22T05:19:12.631Z,100879.00
2023-03-22T05:21:17.418Z,100880.63
2023-03-22T05:23:19.651Z,100877.91
2023-03-22T05:25:21.583Z,100868.97
2023-03-22T05:27:23.340Z,100865.19
2023-03-22T05:29:26.254Z,100863.53
2023-03-22T05:31:27.878Z,100864.16
2023-03-22T05:33:29.516Z,100857.03
2023-03-22T05:35:31.840Z,100857.88
2023-03-22T05:37:35.307Z,100856.84
2023-03-22T05:39:36.920Z,100863.97
2023-03-22T05:41:39.258Z,100874.84
2023-03-22T05:43:41.635Z,100870.22
2023-03-22T05:45:43.203Z,100874.59
2023-03-22T05:47:45.026Z,100876.47
2023-03-22T05:49:46.678Z,100870.22
2023-03-22T05:51:48.193Z,100874.59
2023-03-22T05:53:51.613Z,100869.00
2023-03-22T05:55:53.301Z,100865.22
2023-03-22T05:57:55.188Z,100859.78
2023-03-22T05:59:56.905Z,100854.34
2023-03-22T06:01:58.544Z,100853.31
2023-03-22T06:04:00.888Z,100857.72
2023-03-22T06:06:02.764Z,100863.75
2023-03-22T06:08:06.581Z,100872.75
2023-03-22T06:10:13.806Z,100871.72
2023-03-22T06:12:17.172Z,100876.13
2023-03-22T06:14:18.908Z,100877.78
2023-03-22T06:16:20.835Z,100873.19
2023-03-22T06:18:22.979Z,100873.84
2023-03-22T06:20:24.604Z,100868.41
2023-03-22T06:22:28.057Z,100866.31
2023-03-22T06:24:30.069Z,100870.72
2023-03-22T06:26:34.664Z,100872.41
2023-03-22T06:28:36.488Z,100868.44
2023-03-22T06:30:38.763Z,100865.72
2023-03-22T06:32:41.139Z,100859.25
2023-03-22T06:34:42.873Z,100862.59
2023-03-22T06:36:44.781Z,100858.00
2023-03-22T06:38:46.851Z,100862.00
2023-03-22T06:40:48.712Z,100854.44
2023-03-22T06:42:51.933Z,100859.72
2023-03-22T06:44:53.591Z,100855.97
2023-03-22T06:46:55.452Z,100857.44
2023-03-22T06:48:57.189Z,100859.97
2023-03-22T06:50:59.155Z,100863.31
2023-03-22T06:53:00.969Z,100857.47
2023-03-22T06:55:03.020Z,100860.00
2023-03-22T06:57:06.055Z,100857.88
2023-03-22T06:59:09.072Z,100865.63
2023-03-22T07:01:10.769Z,100856.25
2023-03-22T07:03:12.468Z,100858.75
2023-03-22T07:05:17.696Z,100853.97
2023-03-22T07:07:19.278Z,100849.97
2023-03-22T07:09:22.794Z,100851.44
2023-03-22T07:11:24.587Z,100842.06
2023-03-22T07:13:26.430Z,100854.38
2023-03-22T07:15:29.772Z,100854.81
2023-03-22T07:17:31.427Z,100852.53
2023-03-22T07:19:33.509Z,100845.81
2023-03-22T07:21:35.081Z,100843.56
2023-03-22T07:23:38.682Z,100854.00
2023-03-22T07:25:40.289Z,100844.41
2023-03-22T07:27:41.873Z,100842.72
2023-03-22T07:29:44.174Z,100842.09
2023-03-22T07:31:47.644Z,100838.13
2023-03-22T07:33:49.283Z,100835.81
2023-03-22T07:35:50.966Z,100840.44
2023-03-22T07:37:52.875Z,100840.84
2023-03-22T07:39:57.833Z,100831.00
2023-03-22T07:41:59.817Z,100829.53
2023-03-22T07:44:15.198Z,100826.19
2023-03-22T07:46:19.319Z,100829.97
2023-03-22T07:48:23.477Z,100832.03
2023-03-22T07:50:25.425Z,100827.84
2023-03-22T07:52:27.520Z,100834.34
2023-03-22T07:54:33.934Z,100827.63
2023-03-22T07:56:36.235Z,100825.94
2023-03-22T07:58:38.101Z,100825.28
2023-03-22T08:00:41.686Z,100825.50
2023-03-22T08:02:43.854Z,100825.91
2023-03-22T08:04:49.646Z,100812.50
2023-03-22T08:06:53.560Z,100814.34
2023-03-22T08:08:55.571Z,100809.31
2023-03-22T08:10:57.194Z,100807.41
2023-03-22T08:12:58.828Z,100823.13
2023-03-22T08:15:01.352Z,100815.38
2023-03-22T08:17:03.293Z,100806.53
2023-03-22T08:19:04.798Z,100816.78
2023-03-22T08:21:10.914Z,100807.13
2023-03-22T08:23:13.014Z,100814.00
2023-03-22T08:25:15.752Z,100818.38
2023-03-22T08:27:17.516Z,100809.09
2023-03-22T08:29:21.252Z,100801.88
2023-03-22T08:31:23.894Z,100806.22
2023-03-22T08:33:28.046Z,100811.59
2023-03-22T08:35:31.997Z,100807.88
2023-03-22T08:37:35.435Z,100812.56
2023-03-22T08:39:37.462Z,100806.81
2023-03-22T08:41:39.493Z,100801.56
2023-03-22T08:43:41.293Z,100804.44
2023-03-22T08:45:43.489Z,100801.03
2023-03-22T08:47:45.479Z,100794.28
2023-03-22T08:49:47.070Z,100794.44
2023-03-22T08:51:48.916Z,100801.97
2023-03-22T08:53:52.179Z,100801.28
2023-03-22T08:55:53.889Z,100807.97
2023-03-22T08:57:55.636Z,100802.28
2023-03-22T08:59:57.745Z,100794.25
2023-03-22T09:01:59.892Z,100800.22
2023-03-22T09:04:02.204Z,100803.97
2023-03-22T09:06:04.531Z,100791.66
2023-03-22T09:08:06.851Z,100789.66
2023-03-22T09:10:11.152Z,100791.50
2023-03-22T09:12:12.913Z,100787.47
2023-03-22T09:14:14.828Z,100788.69
2023-03-22T09:16:17.530Z,100784.06
2023-03-22T09:18:19.287Z,100792.84
2023-03-22T09:20:20.909Z,100781.69
2023-03-22T09:22:23.192Z,100787.63
2023-03-22T09:24:26.040Z,100782.75
2023-03-22T09:26:29.022Z,100780.00
2023-03-22T09:28:31.176Z,100779.16
2023-03-22T09:30:33.515Z,100777.06
2023-03-22T09:32:35.424Z,100776.22
2023-03-22T09:34:37.301Z,100774.91
2023-03-22T09:36:38.940Z,100780.38
2023-03-22T09:38:40.942Z,100771.50
2023-03-22T09:40:50.687Z,100761.38
2023-03-22T09:42:57.808Z,100755.91
2023-03-22T09:45:02.648Z,100754.03
2023-03-22T09:47:07.677Z,100757.59
2023-03-22T09:49:14.703Z,100752.94
2023-03-22T09:51:29.738Z,100754.25
2023-03-22T09:53:32.717Z,100746.88
2023-03-22T09:55:40.606Z,100746.88
2023-03-22T09:57:49.363Z,100746.28
2023-03-22T10:00:00.912Z,100744.34
2023-03-22T10:02:12.478Z,100746.28
2023-03-22T10:04:44.378Z,100743.06
2023-03-22T10:06:50.680Z,100739.25
2023-03-22T10:08:59.559Z,100744.50
2023-03-22T10:11:01.731Z,100740.72
2023-03-22T10:13:13.077Z,100740.25
2023-03-22T10:15:20.780Z,100738.34
2023-03-22T10:17:27.215Z,100735.13
2023-03-22T10:19:33.644Z,100740.97
2023-03-22T10:21:36.648Z,100738.84
2023-03-22T10:23:44.147Z,100723.88
2023-03-22T10:25:47.327Z,100728.03
2023-03-22T10:27:52.202Z,100731.97
2023-03-22T10:29:59.463Z,100722.44
2023-03-22T10:32:14.716Z,100719.88
2023-03-22T10:34:21.607Z,100715.25
2023-03-22T10:36:28.803Z,100714.31
2023-03-22T10:38:32.454Z,100714.44
2023-03-22T10:40:36.941Z,100714.56
2023-03-22T10:42:44.009Z,100707.53
2023-03-22T10:44:52.492Z,100705.28
2023-03-22T10:46:59.510Z,100709.44
2023-03-22T10:49:04.956Z,100713.75
2023-03-22T10:51:07.779Z,100707.00
2023-03-22T10:53:26.658Z,100699.13
2023-03-22T10:55:29.178Z,100695.66
2023-03-22T10:57:31.352Z,100702.09
2023-03-22T10:59:45.306Z,100696.00
2023-03-22T11:01:51.291Z,100696.97
2023-03-22T11:03:57.560Z,100706.97
2023-03-22T11:06:03.564Z,100691.00
2023-03-22T11:08:05.212Z,100687.28
2023-03-22T11:10:19.268Z,100704.69
2023-03-22T11:12:20.921Z,100705.25
2023-03-22T11:14:28.033Z,100697.66
2023-03-22T11:16:31.653Z,100697.72
2023-03-22T11:18:35.251Z,100684.63
2023-03-22T11:20:41.244Z,100687.72
2023-03-22T11:22:47.187Z,100683.44
2023-03-22T11:24:48.986Z,100689.78
2023-03-22T11:27:03.072Z,100679.97
2023-03-22T11:29:08.520Z,100684.38
2023-03-22T11:31:12.029Z,100671.72
2023-03-22T11:33:20.134Z,100668.75
2023-03-22T11:35:23.585Z,100668.75
2023-03-22T11:37:25.750Z,100662.44
2023-03-22T11:39:30.260Z,100655.53
2023-03-22T11:41:36.597Z,100652.31
2023-03-22T11:43:41.601Z,100646.25
2023-03-22T11:45:45.019Z,100647.88
2023-03-22T11:47:46.778Z,100642.41
2023-03-22T11:49:52.335Z,100648.00
2023-03-22T11:51:55.887Z,100650.25
2023-03-22T11:54:07.653Z,100658.59
2023-03-22T11:56:13.304Z,100648.28
2023-03-22T11:58:26.160Z,100647.06
2023-03-22T12:00:30.783Z,100647.97
2023-03-22T12:02:38.601Z,100637.69
2023-03-22T12:04:44.690Z,100638.84
2023-03-22T12:06:47.146Z,100634.81
2023-03-22T12:08:54.254Z,100630.22
2023-03-22T12:11:01.844Z,100621.75
2023-03-22T12:13:11.045Z,100625.06
2023-03-22T12:15:17.935Z,100619.56
2023-03-22T12:17:28.723Z,100628.66
2023-03-22T12:19:44.433Z,100626.13
2023-03-22T12:21:48.757Z,100614.81
2023-03-22T12:23:50.639Z,100619.25
2023-03-22T12:25:58.246Z,100625.22
2023-03-22T12:28:05.577Z,100612.09
2023-03-22T12:30:14.988Z,100601.44
2023-03-22T12:32:21.839Z,100598.47
2023-03-22T12:34:33.011Z,100597.38
2023-03-22T12:36:40.429Z,100600.47
2023-03-22T12:38:47.367Z,100589.53
2023-03-22T12:40:52.694Z,100590.72
2023-03-22T12:43:03.825Z,100587.22
2023-03-22T12:45:15.300Z,100591.47
2023-03-22T12:47:24.661Z,100588.81
2023-03-22T12:49:32.110Z,100580.63
2023-03-22T12:51:33.931Z,100568.88
2023-03-22T12:53:38.288Z,100582.75
2023-03-22T12:55:41.797Z,100585.22
2023-03-22T12:57:43.621Z,100589.13
2023-03-22T12:59:48.972Z,100579.81
2023-03-22T13:01:58.168Z,100581.72
2023-03-22T13:04:00.140Z,100570.72
2023-03-22T13:06:06.261Z,100584.78
2023-03-22T13:08:08.657Z,100586.47
2023-03-22T13:10:47.589Z,100577.47
2023-03-22T13:13:09.800Z,100577.19
2023-03-22T13:15:41.181Z,100575.53
2023-03-22T13:17:45.886Z,100582.97
2023-03-22T13:19:53.404Z,100577.47
2023-03-22T13:22:17.916Z,100585.72
2023-03-22T13:24:22.335Z,100587.63
2023-03-22T13:26:32.510Z,100578.28
2023-03-22T13:28:34.171Z,100587.34
2023-03-22T13:30:47.077Z,100589.34
2023-03-22T13:32:54.633Z,100586.34
2023-03-22T13:34:57.990Z,100574.84
2023-03-22T13:37:00.019Z,100576.25
2023-03-22T13:39:09.606Z,100574.91
2023-03-22T13:41:22.050Z,100567.50
2023-03-22T13:43:28.941Z,100562.84
2023-03-22T13:45:33.087Z,100557.09
2023-03-22T13:47:37.032Z,100561.16
2023-03-22T13:49:49.453Z,100560.09
2023-03-22T13:51:52.190Z,100562.00
2023-03-22T13:53:58.794Z,100562.00
2023-03-22T13:56:05.077Z,100554.59
2023-03-22T13:58:11.206Z,100553.75
2023-03-22T14:00:34.362Z,100551.00
2023-03-22T14:02:41.594Z,100562.84
2023-03-22T14:04:47.498Z,100559.53
2023-03-22T14:06:52.871Z,100556.78
2023-03-22T14:09:00.734Z,100555.94
2023-03-22T14:11:10.782Z,100551.78
2023-03-22T14:13:19.113Z,100550.97
2023-03-22T14:15:25.086Z,100553.94
2023-03-22T14:17:35.858Z,100550.13
2023-03-22T14:19:38.726Z,100553.94
2023-03-22T14:21:47.408Z,100549.53
